createdAt,value
2017-05-13T00:00:08.110Z,86.55
2017-05-13T00:01:09.526Z,86.55
2017-05-13T00:02:10.958Z,86.08
2017-05-13T00:03:12.387Z,86.36
2017-05-13T00:04:13.816Z,87.13
2017-05-13T00:05:15.249Z,86.27
2017-05-13T00:06:16.680Z,86.94
2017-05-13T00:07:18.112Z,85.98
2017-05-13T00:08:19.548Z,86.27
2017-05-13T00:09:20.964Z,86.46
2017-05-13T00:10:22.399Z,87.23
2017-05-13T00:11:23.848Z,86.55
2017-05-13T00:12:25.283Z,85.74
2017-05-13T00:13:26.711Z,85.79
2017-05-13T00:14:28.151Z,86.17
2017-05-13T00:15:29.581Z,86.46
2017-05-13T00:16:31.011Z,85.64
2017-05-13T00:17:32.439Z,85.21
2017-05-13T00:18:33.872Z,86.36
2017-05-13T00:19:35.312Z,87.32
2017-05-13T00:20:36.738Z,87.23
2017-05-13T00:21:38.166Z,87.23
2017-05-13T00:22:39.592Z,87.76
2017-05-13T00:23:41.029Z,88.09
2017-05-13T00:24:42.447Z,87.99
2017-05-13T00:25:43.890Z,87.80
2017-05-13T00:26:45.317Z,87.13
2017-05-13T00:27:46.747Z,87.03
2017-05-13T00:28:48.175Z,87.70
2017-05-13T00:29:49.612Z,87.70
2017-05-13T00:30:51.042Z,86.98
2017-05-13T00:31:52.470Z,86.69
2017-05-13T00:32:53.903Z,85.45
2017-05-13T00:33:55.331Z,86.31
2017-05-13T00:34:56.761Z,86.17
2017-05-13T00:35:58.190Z,86.46
2017-05-13T00:36:59.617Z,86.94
2017-05-13T00:38:01.045Z,86.94
2017-05-13T00:39:02.484Z,85.98
2017-05-13T00:40:03.918Z,86.74
2017-05-13T00:41:05.339Z,86.36
2017-05-13T00:42:06.773Z,87.23
2017-05-13T00:43:08.202Z,87.61
2017-05-13T00:44:09.627Z,88.09
2017-05-13T00:45:11.066Z,87.61
2017-05-13T00:46:12.503Z,87.90
2017-05-13T00:47:13.933Z,87.61
2017-05-13T00:48:15.364Z,87.70
2017-05-13T00:49:16.789Z,87.51
2017-05-13T00:50:18.219Z,87.41
2017-05-13T00:51:19.643Z,88.09
2017-05-13T00:52:21.075Z,88.28
2017-05-13T00:53:22.498Z,87.90
2017-05-13T00:54:23.931Z,88.09
2017-05-13T00:55:25.362Z,87.95
2017-05-13T00:56:26.788Z,88.62
2017-05-13T00:57:28.221Z,88.43
2017-05-13T00:58:29.648Z,89.00
2017-05-13T00:59:31.073Z,89.09
2017-05-13T01:00:32.510Z,89.86
2017-05-13T01:01:33.933Z,90.58
2017-05-13T01:02:35.359Z,90.67
2017-05-13T01:03:36.816Z,90.15
2017-05-13T01:04:38.241Z,89.86
2017-05-13T01:05:39.673Z,89.67
2017-05-13T01:06:41.106Z,89.86
2017-05-13T01:07:42.526Z,89.24
2017-05-13T01:08:43.954Z,89.58
2017-05-13T01:09:45.397Z,89.34
2017-05-13T01:10:46.828Z,90.10
2017-05-13T01:11:48.256Z,90.39
2017-05-13T01:12:49.690Z,89.72
2017-05-13T01:13:51.120Z,90.01
2017-05-13T01:14:53.444Z,89.62
2017-05-13T01:15:54.875Z,89.81
2017-05-13T01:16:56.312Z,89.72
2017-05-13T01:17:57.743Z,89.05
2017-05-13T01:18:59.167Z,89.05
2017-05-13T01:20:00.594Z,88.95
2017-05-13T01:21:02.025Z,89.05
2017-05-13T01:22:03.452Z,88.67
2017-05-13T01:23:04.879Z,88.76
2017-05-13T01:24:06.304Z,88.95
2017-05-13T01:25:07.731Z,88.48
2017-05-13T01:26:09.163Z,87.52
2017-05-13T01:27:11.507Z,90.16
2017-05-13T01:28:12.933Z,90.34
2017-05-13T01:29:14.356Z,89.87
2017-05-13T01:30:15.788Z,89.58
2017-05-13T01:31:17.221Z,89.48
2017-05-13T01:32:18.663Z,90.49
2017-05-13T01:33:20.086Z,93.16
2017-05-13T01:34:22.226Z,93.16
2017-05-13T01:35:23.651Z,92.69
2017-05-13T01:36:26.024Z,92.45
2017-05-13T01:37:27.449Z,90.30
2017-05-13T01:38:28.873Z,90.78
2017-05-13T01:39:30.301Z,90.68
2017-05-13T01:40:31.730Z,89.92
2017-05-13T01:41:33.168Z,89.63
2017-05-13T01:42:34.599Z,89.53
2017-05-13T01:43:36.025Z,89.53
2017-05-13T01:44:37.452Z,89.92
2017-05-13T01:45:39.603Z,89.44
2017-05-13T01:46:41.031Z,89.53
2017-05-13T01:47:42.453Z,89.53
2017-05-13T01:48:43.880Z,89.53
2017-05-13T01:49:45.309Z,90.20
2017-05-13T01:50:46.742Z,90.88
2017-05-13T01:51:48.166Z,90.11
2017-05-13T01:52:49.588Z,89.92
2017-05-13T01:53:51.023Z,88.87
2017-05-13T01:54:52.445Z,88.96
2017-05-13T01:55:53.872Z,90.88
2017-05-13T01:56:55.293Z,89.82
2017-05-13T01:57:56.721Z,89.63
2017-05-13T01:58:58.146Z,89.82
2017-05-13T01:59:59.577Z,88.29
2017-05-13T02:01:01.009Z,88.77
2017-05-13T02:02:02.436Z,88.39
2017-05-13T02:03:03.858Z,89.59
2017-05-13T02:04:05.288Z,89.92
2017-05-13T02:05:06.713Z,90.11
2017-05-13T02:06:08.153Z,89.39
2017-05-13T02:07:09.581Z,88.92
2017-05-13T02:08:11.009Z,89.01
2017-05-13T02:09:12.432Z,89.59
2017-05-13T02:10:13.863Z,89.01
2017-05-13T02:11:15.288Z,89.39
2017-05-13T02:12:16.721Z,89.87
2017-05-13T02:13:18.152Z,90.21
2017-05-13T02:14:19.578Z,91.26
2017-05-13T02:15:20.996Z,91.93
2017-05-13T02:16:22.432Z,90.78
2017-05-13T02:17:23.863Z,91.02
2017-05-13T02:18:25.285Z,90.92
2017-05-13T02:19:26.708Z,90.16
2017-05-13T02:20:28.139Z,90.45
2017-05-13T02:21:29.569Z,89.87
2017-05-13T02:22:30.995Z,90.64
2017-05-13T02:23:32.422Z,90.45
2017-05-13T02:24:33.848Z,90.06
2017-05-13T02:25:35.276Z,90.35
2017-05-13T02:26:36.721Z,90.06
2017-05-13T02:27:38.158Z,90.45
2017-05-13T02:28:39.580Z,90.06
2017-05-13T02:29:41.009Z,90.06
2017-05-13T02:30:42.450Z,91.02
2017-05-13T02:31:43.874Z,89.97
2017-05-13T02:32:45.339Z,90.64
2017-05-13T02:33:46.739Z,90.73
2017-05-13T02:34:48.185Z,90.25
2017-05-13T02:35:49.610Z,90.25
2017-05-13T02:36:51.054Z,89.97
2017-05-13T02:37:52.485Z,90.25
2017-05-13T02:38:53.907Z,90.45
2017-05-13T02:39:55.332Z,90.35
2017-05-13T02:40:56.761Z,90.54
2017-05-13T02:41:58.189Z,91.30
2017-05-13T02:42:59.618Z,91.02
2017-05-13T02:44:01.045Z,90.35
2017-05-13T02:45:02.475Z,89.68
2017-05-13T02:46:03.900Z,90.06
2017-05-13T02:47:05.326Z,90.35
2017-05-13T02:48:06.766Z,90.25
2017-05-13T02:49:08.189Z,90.35
2017-05-13T02:50:09.607Z,91.45
2017-05-13T02:51:11.033Z,92.07
2017-05-13T02:52:12.463Z,90.83
2017-05-13T02:53:13.884Z,91.78
2017-05-13T02:54:15.314Z,91.30
2017-05-13T02:55:16.736Z,91.50
2017-05-13T02:56:18.165Z,91.40
2017-05-13T02:57:19.590Z,90.83
2017-05-13T02:58:21.024Z,90.64
2017-05-13T02:59:22.448Z,90.92
2017-05-13T03:00:23.872Z,91.59
2017-05-13T03:01:25.302Z,91.59
2017-05-13T03:02:26.728Z,91.21
2017-05-13T03:03:28.145Z,93.02
2017-05-13T03:04:29.571Z,94.98
2017-05-13T03:05:30.999Z,95.08
2017-05-13T03:06:32.421Z,94.31
2017-05-13T03:07:33.849Z,94.74
2017-05-13T03:08:35.278Z,94.60
2017-05-13T03:09:36.700Z,94.89
2017-05-13T03:10:38.129Z,95.75
2017-05-13T03:11:39.546Z,96.22
2017-05-13T03:12:40.969Z,95.17
2017-05-13T03:13:42.399Z,95.36
2017-05-13T03:14:43.831Z,94.74
2017-05-13T03:15:45.259Z,94.17
2017-05-13T03:16:46.695Z,93.12
2017-05-13T03:17:48.116Z,92.93
2017-05-13T03:18:49.543Z,93.70
2017-05-13T03:19:50.960Z,93.16
2017-05-13T03:20:52.409Z,92.16
2017-05-13T03:21:53.840Z,91.64
2017-05-13T03:22:55.267Z,91.35
2017-05-13T03:23:56.691Z,91.64
2017-05-13T03:24:58.122Z,92.40
2017-05-13T03:25:59.543Z,92.40
2017-05-13T03:27:00.957Z,92.97
2017-05-13T03:28:02.389Z,93.88
2017-05-13T03:29:03.824Z,93.41
2017-05-13T03:30:05.251Z,93.07
2017-05-13T03:31:06.680Z,92.97
2017-05-13T03:32:08.111Z,93.16
2017-05-13T03:33:09.539Z,93.26
2017-05-13T03:34:11.074Z,91.83
2017-05-13T03:35:12.496Z,92.02
2017-05-13T03:36:13.927Z,92.59
2017-05-13T03:37:15.364Z,91.64
2017-05-13T03:38:16.791Z,92.02
2017-05-13T03:39:18.243Z,92.50
2017-05-13T03:40:19.669Z,92.88
2017-05-13T03:41:21.099Z,92.40
2017-05-13T03:42:22.529Z,92.40
2017-05-13T03:43:23.959Z,91.64
2017-05-13T03:44:25.390Z,92.40
2017-05-13T03:45:26.939Z,91.93
2017-05-13T03:46:28.373Z,92.02
2017-05-13T03:47:29.796Z,92.88
2017-05-13T03:48:31.228Z,93.07
2017-05-13T03:49:32.664Z,93.16
2017-05-13T03:50:34.094Z,92.30
2017-05-13T03:51:35.522Z,92.02
2017-05-13T03:52:36.950Z,91.97
2017-05-13T03:53:38.450Z,92.11
2017-05-13T03:54:39.880Z,93.84
2017-05-13T03:55:41.321Z,93.07
2017-05-13T03:56:42.754Z,92.59
2017-05-13T03:57:44.178Z,91.88
2017-05-13T03:58:45.604Z,92.59
2017-05-13T03:59:47.068Z,93.16
2017-05-13T04:00:48.500Z,92.50
2017-05-13T04:01:49.929Z,92.97
2017-05-13T04:02:51.356Z,93.45
2017-05-13T04:03:52.782Z,93.26
2017-05-13T04:04:54.210Z,92.79
2017-05-13T04:05:55.634Z,93.16
2017-05-13T04:06:57.062Z,93.16
2017-05-13T04:07:58.493Z,93.93
2017-05-13T04:08:59.922Z,94.55
2017-05-13T04:10:01.354Z,94.84
2017-05-13T04:11:02.783Z,94.55
2017-05-13T04:12:04.212Z,94.84
2017-05-13T04:13:05.649Z,95.70
2017-05-13T04:14:07.081Z,96.46
2017-05-13T04:15:08.517Z,96.56
2017-05-13T04:16:09.953Z,95.07
2017-05-13T04:17:11.378Z,94.51
2017-05-13T04:18:12.804Z,94.02
2017-05-13T04:19:14.239Z,94.22
2017-05-13T04:20:15.670Z,94.70
2017-05-13T04:21:17.102Z,94.60
2017-05-13T04:22:18.539Z,94.79
2017-05-13T04:23:19.967Z,95.07
2017-05-13T04:24:21.400Z,94.51
2017-05-13T04:25:22.833Z,94.70
2017-05-13T04:26:24.266Z,94.51
2017-05-13T04:27:25.689Z,94.31
2017-05-13T04:28:27.119Z,94.31
2017-05-13T04:29:28.543Z,94.60
2017-05-13T04:30:29.975Z,95.70
2017-05-13T04:31:31.407Z,95.03
2017-05-13T04:32:32.838Z,95.70
2017-05-13T04:33:34.265Z,95.89
2017-05-13T04:34:35.701Z,96.08
2017-05-13T04:35:37.136Z,96.66
2017-05-13T04:36:38.561Z,97.32
2017-05-13T04:37:39.994Z,97.32
2017-05-13T04:38:41.425Z,97.52
2017-05-13T04:39:42.863Z,97.13
2017-05-13T04:40:44.293Z,97.13
2017-05-13T04:41:45.721Z,96.84
2017-05-13T04:42:48.952Z,96.56
2017-05-13T04:43:51.965Z,96.17
2017-05-13T04:44:53.396Z,95.17
2017-05-13T04:45:54.825Z,94.98
2017-05-13T04:46:56.257Z,94.60
2017-05-13T04:47:59.314Z,93.93
2017-05-13T04:48:59.895Z,94.51
2017-05-13T04:50:01.337Z,94.41
2017-05-13T04:51:02.764Z,94.46
2017-05-13T04:52:04.195Z,93.69
2017-05-13T04:53:05.620Z,92.83
2017-05-13T04:54:07.048Z,92.93
2017-05-13T04:55:08.474Z,92.54
2017-05-13T04:56:09.906Z,92.54
2017-05-13T04:57:11.338Z,92.16
2017-05-13T04:58:12.771Z,91.88
2017-05-13T04:59:14.205Z,92.25
2017-05-13T05:00:15.630Z,93.50
2017-05-13T05:01:17.066Z,92.93
2017-05-13T05:02:18.510Z,93.50
2017-05-13T05:03:19.932Z,93.45
2017-05-13T05:04:22.154Z,91.44
2017-05-13T05:05:23.587Z,92.07
2017-05-13T05:06:25.017Z,92.25
2017-05-13T05:07:26.444Z,92.49
2017-05-13T05:08:27.869Z,92.69
2017-05-13T05:09:29.302Z,91.44
2017-05-13T05:10:30.738Z,91.44
2017-05-13T05:11:32.167Z,90.77
2017-05-13T05:12:33.596Z,90.62
2017-05-13T05:13:35.029Z,89.86
2017-05-13T05:14:36.462Z,89.95
2017-05-13T05:15:37.891Z,90.91
2017-05-13T05:16:39.321Z,90.62
2017-05-13T05:17:40.757Z,90.15
2017-05-13T05:18:42.184Z,89.00
2017-05-13T05:19:43.614Z,89.76
2017-05-13T05:20:45.052Z,89.33
2017-05-13T05:21:46.492Z,89.29
2017-05-13T05:22:47.924Z,89.43
2017-05-13T05:23:49.356Z,89.81
2017-05-13T05:24:50.789Z,88.95
2017-05-13T05:25:52.226Z,88.47
2017-05-13T05:26:53.662Z,86.50
2017-05-13T05:27:55.082Z,85.93
2017-05-13T05:28:56.513Z,86.60
2017-05-13T05:29:57.946Z,86.21
2017-05-13T05:30:59.376Z,86.02
2017-05-13T05:32:00.810Z,86.41
2017-05-13T05:33:02.253Z,85.45
2017-05-13T05:34:03.685Z,86.21
2017-05-13T05:35:05.115Z,86.02
2017-05-13T05:36:06.548Z,86.41
2017-05-13T05:37:07.978Z,86.50
2017-05-13T05:38:09.402Z,86.93
2017-05-13T05:39:10.836Z,86.88
2017-05-13T05:40:12.267Z,87.08
2017-05-13T05:41:13.696Z,88.23
2017-05-13T05:42:15.123Z,85.78
2017-05-13T05:43:16.558Z,85.06
2017-05-13T05:44:17.994Z,85.39
2017-05-13T05:45:19.421Z,85.64
2017-05-13T05:46:20.851Z,85.30
2017-05-13T05:47:22.286Z,85.01
2017-05-13T05:48:23.717Z,84.63
2017-05-13T05:49:25.154Z,85.49
2017-05-13T05:50:26.588Z,84.15
2017-05-13T05:51:28.022Z,84.25
2017-05-13T05:52:29.459Z,83.86
2017-05-13T05:53:30.885Z,84.28
2017-05-13T05:54:32.318Z,83.52
2017-05-13T05:55:33.745Z,84.91
2017-05-13T05:56:35.174Z,83.42
2017-05-13T05:57:36.613Z,83.23
2017-05-13T05:58:38.042Z,82.85
2017-05-13T05:59:39.472Z,84.28
2017-05-13T06:00:40.911Z,83.52
2017-05-13T06:01:42.355Z,84.48
2017-05-13T06:02:43.776Z,83.71
2017-05-13T06:03:45.217Z,83.81
2017-05-13T06:04:46.648Z,84.48
2017-05-13T06:05:48.090Z,84.34
2017-05-13T06:06:49.519Z,84.28
2017-05-13T06:07:50.953Z,84.48
2017-05-13T06:08:52.389Z,83.81
2017-05-13T06:09:53.821Z,84.48
2017-05-13T06:10:55.257Z,83.04
2017-05-13T06:11:56.702Z,83.33
2017-05-13T06:12:58.141Z,83.91
2017-05-13T06:13:59.580Z,83.71
2017-05-13T06:15:01.009Z,83.61
2017-05-13T06:16:02.452Z,81.54
2017-05-13T06:17:03.885Z,83.52
2017-05-13T06:18:05.312Z,84.00
2017-05-13T06:19:06.745Z,81.74
2017-05-13T06:20:08.187Z,82.21
2017-05-13T06:21:09.622Z,83.94
2017-05-13T06:22:11.050Z,83.75
2017-05-13T06:23:12.481Z,81.54
2017-05-13T06:24:13.912Z,82.79
2017-05-13T06:25:15.356Z,82.21
2017-05-13T06:26:16.793Z,82.79
2017-05-13T06:27:18.227Z,81.35
2017-05-13T06:28:19.663Z,82.03
2017-05-13T06:29:21.089Z,80.97
2017-05-13T06:30:22.533Z,80.82
2017-05-13T06:31:23.967Z,79.91
2017-05-13T06:32:25.404Z,79.44
2017-05-13T06:33:26.832Z,79.05
2017-05-13T06:34:28.271Z,79.67
2017-05-13T06:35:29.710Z,78.52
2017-05-13T06:36:31.140Z,81.40
2017-05-13T06:37:32.573Z,80.91
2017-05-13T06:38:34.003Z,80.15
2017-05-13T06:39:35.435Z,79.34
2017-05-13T06:40:36.872Z,80.58
2017-05-13T06:41:38.307Z,79.82
2017-05-13T06:42:39.748Z,79.63
2017-05-13T06:43:41.178Z,79.14
2017-05-13T06:44:42.614Z,79.53
2017-05-13T06:45:44.051Z,79.34
2017-05-13T06:46:45.493Z,80.20
2017-05-13T06:47:46.928Z,78.47
2017-05-13T06:48:49.323Z,78.67
2017-05-13T06:49:49.752Z,80.87
2017-05-13T06:50:51.185Z,78.96
2017-05-13T06:51:52.619Z,78.47
2017-05-13T06:52:54.056Z,78.77
2017-05-13T06:53:55.490Z,80.01
2017-05-13T06:54:56.929Z,81.64
2017-05-13T06:55:58.370Z,81.35
2017-05-13T06:56:59.805Z,80.43
2017-05-13T06:58:01.236Z,80.01
2017-05-13T06:59:02.665Z,79.63
2017-05-13T07:00:04.100Z,79.91
2017-05-13T07:01:05.533Z,81.16
2017-05-13T07:02:06.968Z,79.72
2017-05-13T07:03:08.407Z,79.05
2017-05-13T07:04:09.830Z,80.58
2017-05-13T07:05:11.269Z,81.64
2017-05-13T07:06:12.700Z,82.03
2017-05-13T07:07:14.136Z,80.49
2017-05-13T07:08:15.565Z,80.49
2017-05-13T07:09:17.000Z,80.68
2017-05-13T07:10:18.428Z,79.63
2017-05-13T07:11:19.864Z,80.68
2017-05-13T07:12:21.292Z,79.82
2017-05-13T07:13:22.732Z,79.14
2017-05-13T07:14:24.169Z,79.82
2017-05-13T07:15:25.598Z,78.67
2017-05-13T07:16:27.036Z,78.28
2017-05-13T07:17:28.469Z,77.36
2017-05-13T07:18:29.910Z,76.79
2017-05-13T07:19:31.350Z,77.17
2017-05-13T07:20:32.782Z,77.26
2017-05-13T07:21:34.234Z,77.78
2017-05-13T07:22:35.670Z,77.69
2017-05-13T07:23:37.105Z,77.65
2017-05-13T07:24:38.541Z,77.21
2017-05-13T07:25:39.974Z,75.87
2017-05-13T07:26:41.398Z,75.57
2017-05-13T07:27:42.835Z,75.20
2017-05-13T07:28:44.278Z,75.71
2017-05-13T07:29:45.709Z,76.82
2017-05-13T07:30:47.144Z,76.96
2017-05-13T07:31:48.584Z,74.65
2017-05-13T07:32:50.025Z,74.08
2017-05-13T07:33:51.457Z,74.85
2017-05-13T07:34:52.893Z,73.66
2017-05-13T07:35:54.325Z,74.37
2017-05-13T07:36:55.762Z,73.50
2017-05-13T07:37:57.201Z,73.60
2017-05-13T07:38:58.631Z,73.88
2017-05-13T07:40:00.061Z,74.27
2017-05-13T07:41:01.498Z,72.73
2017-05-13T07:42:02.949Z,73.46
2017-05-13T07:43:04.424Z,74.27
2017-05-13T07:44:05.834Z,74.04
2017-05-13T07:45:07.260Z,72.44
2017-05-13T07:46:08.699Z,73.02
2017-05-13T07:47:10.132Z,72.99
2017-05-13T07:48:11.574Z,72.44
2017-05-13T07:49:13.008Z,73.41
2017-05-13T07:50:14.446Z,72.83
2017-05-13T07:51:15.875Z,73.41
2017-05-13T07:52:17.313Z,73.02
2017-05-13T07:53:18.744Z,74.65
2017-05-13T07:54:20.184Z,74.17
2017-05-13T07:55:21.623Z,73.50
2017-05-13T07:56:23.071Z,73.63
2017-05-13T07:57:24.503Z,74.94
2017-05-13T07:58:25.935Z,75.04
2017-05-13T07:59:27.371Z,74.65
2017-05-13T08:00:28.809Z,74.69
2017-05-13T08:01:30.252Z,75.07
2017-05-13T08:02:31.689Z,74.40
2017-05-13T08:03:33.121Z,72.38
2017-05-13T08:04:34.555Z,71.42
2017-05-13T08:05:35.983Z,73.83
2017-05-13T08:06:37.428Z,70.50
2017-05-13T08:07:38.843Z,71.46
2017-05-13T08:08:40.281Z,72.29
2017-05-13T08:09:41.707Z,69.31
2017-05-13T08:10:43.149Z,69.44
2017-05-13T08:11:44.584Z,69.92
2017-05-13T08:12:46.021Z,71.08
2017-05-13T08:13:47.454Z,70.72
2017-05-13T08:14:48.887Z,71.94
2017-05-13T08:15:50.334Z,70.21
2017-05-13T08:16:51.770Z,72.00
2017-05-13T08:17:53.207Z,71.52
2017-05-13T08:18:54.651Z,70.94
2017-05-13T08:19:56.083Z,71.26
2017-05-13T08:20:57.525Z,69.60
2017-05-13T08:21:58.959Z,69.53
2017-05-13T08:23:00.396Z,69.92
2017-05-13T08:24:01.842Z,67.90
2017-05-13T08:25:03.276Z,69.92
2017-05-13T08:26:04.722Z,69.53
2017-05-13T08:27:06.153Z,68.96
2017-05-13T08:28:07.589Z,69.24
2017-05-13T08:29:09.027Z,68.67
2017-05-13T08:30:10.468Z,67.80
2017-05-13T08:31:11.896Z,69.82
2017-05-13T08:32:13.336Z,67.22
2017-05-13T08:33:14.777Z,67.13
2017-05-13T08:34:16.208Z,67.65
2017-05-13T08:35:17.643Z,68.70
2017-05-13T08:36:19.081Z,66.39
2017-05-13T08:37:20.511Z,67.29
2017-05-13T08:38:21.954Z,67.39
2017-05-13T08:39:23.386Z,67.19
2017-05-13T08:40:24.838Z,69.79
2017-05-13T08:41:26.273Z,66.52
2017-05-13T08:42:27.709Z,66.42
2017-05-13T08:43:29.145Z,66.14
2017-05-13T08:44:30.583Z,65.59
2017-05-13T08:45:32.017Z,68.26
2017-05-13T08:46:33.462Z,68.93
2017-05-13T08:47:34.897Z,67.49
2017-05-13T08:48:36.332Z,65.24
2017-05-13T08:49:37.767Z,68.19
2017-05-13T08:50:39.211Z,67.13
2017-05-13T08:51:40.659Z,67.16
2017-05-13T08:52:42.697Z,66.20
2017-05-13T08:53:44.135Z,66.58
2017-05-13T08:54:45.582Z,65.91
2017-05-13T08:55:47.020Z,66.42
2017-05-13T08:56:48.455Z,66.62
2017-05-13T08:57:49.895Z,64.89
2017-05-13T08:58:51.333Z,64.98
2017-05-13T08:59:52.771Z,65.85
2017-05-13T09:00:54.210Z,66.42
2017-05-13T09:01:55.655Z,66.71
2017-05-13T09:02:57.097Z,66.97
2017-05-13T09:03:58.541Z,67.65
2017-05-13T09:04:59.976Z,68.32
2017-05-13T09:06:01.406Z,67.80
2017-05-13T09:07:02.843Z,68.86
2017-05-13T09:08:04.277Z,68.73
2017-05-13T09:09:05.713Z,67.68
2017-05-13T09:10:07.148Z,69.21
2017-05-13T09:11:08.588Z,68.63
2017-05-13T09:12:10.025Z,68.44
2017-05-13T09:13:11.460Z,68.25
2017-05-13T09:14:12.893Z,68.63
2017-05-13T09:15:14.332Z,67.77
2017-05-13T09:16:15.771Z,68.06
2017-05-13T09:17:17.211Z,66.91
2017-05-13T09:18:19.500Z,65.37
2017-05-13T09:19:20.940Z,67.19
2017-05-13T09:20:22.384Z,66.84
2017-05-13T09:21:23.828Z,67.42
2017-05-13T09:22:25.266Z,67.07
2017-05-13T09:23:26.701Z,65.24
2017-05-13T09:24:28.141Z,65.17
2017-05-13T09:25:29.574Z,61.80
2017-05-13T09:26:31.015Z,63.82
2017-05-13T09:27:32.456Z,62.29
2017-05-13T09:28:33.892Z,64.69
2017-05-13T09:29:35.334Z,62.87
2017-05-13T09:30:37.746Z,63.73
2017-05-13T09:31:39.180Z,65.08
2017-05-13T09:32:40.623Z,63.54
2017-05-13T09:33:42.069Z,65.08
2017-05-13T09:34:43.504Z,65.75
2017-05-13T09:35:44.939Z,62.48
2017-05-13T09:36:46.375Z,62.22
2017-05-13T09:37:47.817Z,61.65
2017-05-13T09:38:49.253Z,63.41
2017-05-13T09:39:50.690Z,62.73
2017-05-13T09:40:52.139Z,62.18
2017-05-13T09:41:53.577Z,61.10
2017-05-13T09:42:55.015Z,61.07
2017-05-13T09:43:56.450Z,62.70
2017-05-13T09:44:57.882Z,64.25
2017-05-13T09:45:59.325Z,63.47
2017-05-13T09:47:00.768Z,61.93
2017-05-13T09:48:02.204Z,60.87
2017-05-13T09:49:03.693Z,61.93
2017-05-13T09:50:05.076Z,62.03
2017-05-13T09:51:06.516Z,61.19
2017-05-13T09:52:07.961Z,61.29
2017-05-13T09:53:09.406Z,61.48
2017-05-13T09:54:10.840Z,62.93
2017-05-13T09:55:12.280Z,61.29
2017-05-13T09:56:13.718Z,61.41
2017-05-13T09:57:15.158Z,60.45
2017-05-13T09:58:16.607Z,60.93
2017-05-13T09:59:18.046Z,61.03
2017-05-13T10:00:19.478Z,59.39
2017-05-13T10:01:20.924Z,60.58
2017-05-13T10:02:22.366Z,58.75
2017-05-13T10:03:23.819Z,59.03
2017-05-13T10:04:25.253Z,57.17
2017-05-13T10:05:26.709Z,58.94
2017-05-13T10:06:28.157Z,60.10
2017-05-13T10:07:29.595Z,58.55
2017-05-13T10:08:31.034Z,60.38
2017-05-13T10:09:32.475Z,59.68
2017-05-13T10:10:33.912Z,58.49
2017-05-13T10:11:35.359Z,59.10
2017-05-13T10:12:36.798Z,58.91
2017-05-13T10:13:38.256Z,57.29
2017-05-13T10:14:39.680Z,56.33
2017-05-13T10:15:41.125Z,56.43
2017-05-13T10:16:42.566Z,56.24
2017-05-13T10:17:44.011Z,55.18
2017-05-13T10:18:45.460Z,56.52
2017-05-13T10:19:46.894Z,56.81
2017-05-13T10:20:48.331Z,57.29
2017-05-13T10:21:49.769Z,56.72
2017-05-13T10:22:51.208Z,56.26
2017-05-13T10:23:52.653Z,60.77
2017-05-13T10:24:54.087Z,63.82
2017-05-13T10:25:55.531Z,59.68
2017-05-13T10:26:56.984Z,62.09
2017-05-13T10:27:58.428Z,65.56
2017-05-13T10:28:59.866Z,60.45
2017-05-13T10:30:01.299Z,58.49
2017-05-13T10:31:02.776Z,63.63
2017-05-13T10:32:04.219Z,62.28
2017-05-13T10:33:05.652Z,60.74
2017-05-13T10:34:07.107Z,61.74
2017-05-13T10:35:08.547Z,60.10
2017-05-13T10:36:09.989Z,61.28
2017-05-13T10:37:11.430Z,59.83
2017-05-13T10:38:12.871Z,63.18
2017-05-13T10:39:14.330Z,59.03
2017-05-13T10:40:15.751Z,60.48
2017-05-13T10:41:17.197Z,59.20
2017-05-13T10:42:18.634Z,59.55
2017-05-13T10:43:20.073Z,65.43
2017-05-13T10:44:21.517Z,66.30
2017-05-13T10:45:22.955Z,59.58
2017-05-13T10:46:24.390Z,59.87
2017-05-13T10:47:25.840Z,63.28
2017-05-13T10:48:27.283Z,63.76
2017-05-13T10:49:28.717Z,63.37
2017-05-13T10:50:30.175Z,60.68
2017-05-13T10:51:31.616Z,59.71
2017-05-13T10:52:33.053Z,58.84
2017-05-13T10:53:34.498Z,60.38
2017-05-13T10:54:35.935Z,59.61
2017-05-13T10:55:37.377Z,62.22
2017-05-13T10:56:38.820Z,59.74
2017-05-13T10:57:40.256Z,62.60
2017-05-13T10:58:41.696Z,59.93
2017-05-13T10:59:43.204Z,61.19
2017-05-13T11:00:44.638Z,59.35
2017-05-13T11:01:47.661Z,58.36
2017-05-13T11:02:49.111Z,59.68
2017-05-13T11:03:50.546Z,59.00
2017-05-13T11:04:51.986Z,59.71
2017-05-13T11:05:53.424Z,62.31
2017-05-13T11:06:54.854Z,58.94
2017-05-13T11:07:56.298Z,59.23
2017-05-13T11:08:57.723Z,64.34
2017-05-13T11:09:59.201Z,59.68
2017-05-13T11:11:00.637Z,58.84
2017-05-13T11:12:02.076Z,61.16
2017-05-13T11:13:03.520Z,61.22
2017-05-13T11:14:04.962Z,62.09
2017-05-13T11:15:06.416Z,62.83
2017-05-13T11:16:07.861Z,66.33
2017-05-13T11:17:09.298Z,63.06
2017-05-13T11:18:10.742Z,67.84
2017-05-13T11:19:13.146Z,66.01
2017-05-13T11:20:14.585Z,65.72
2017-05-13T11:21:16.030Z,65.14
2017-05-13T11:22:17.464Z,63.41
2017-05-13T11:23:18.903Z,62.45
2017-05-13T11:24:20.355Z,64.89
2017-05-13T11:25:21.793Z,68.49
2017-05-13T11:26:23.231Z,64.28
2017-05-13T11:27:24.667Z,60.99
2017-05-13T11:28:26.105Z,59.52
2017-05-13T11:29:27.534Z,60.83
2017-05-13T11:30:28.972Z,60.86
2017-05-13T11:31:30.444Z,59.23
2017-05-13T11:32:31.839Z,60.48
2017-05-13T11:33:34.048Z,61.61
2017-05-13T11:34:34.650Z,63.09
2017-05-13T11:35:36.086Z,64.02
2017-05-13T11:36:37.524Z,68.35
2017-05-13T11:37:38.958Z,67.30
2017-05-13T11:38:40.397Z,60.45
2017-05-13T11:39:41.831Z,61.13
2017-05-13T11:40:43.274Z,60.42
2017-05-13T11:41:44.708Z,61.48
2017-05-13T11:42:46.156Z,61.96
2017-05-13T11:43:47.589Z,62.38
2017-05-13T11:44:49.044Z,60.96
2017-05-13T11:45:50.483Z,64.82
2017-05-13T11:46:51.919Z,63.24
2017-05-13T11:47:53.370Z,65.37
2017-05-13T11:48:54.806Z,62.99
2017-05-13T11:49:56.255Z,68.19
2017-05-13T11:50:57.698Z,62.22
2017-05-13T11:51:59.139Z,64.24
2017-05-13T11:53:00.578Z,62.60
2017-05-13T11:54:02.017Z,60.41
2017-05-13T11:55:03.453Z,59.48
2017-05-13T11:56:04.884Z,59.28
2017-05-13T11:57:06.328Z,57.64
2017-05-13T11:58:07.763Z,57.93
2017-05-13T11:59:09.209Z,65.47
2017-05-13T12:00:10.660Z,59.74
2017-05-13T12:01:12.095Z,60.99
2017-05-13T12:02:13.541Z,61.86
2017-05-13T12:03:14.997Z,59.55
2017-05-13T12:04:16.435Z,61.47
2017-05-13T12:05:17.881Z,62.95
2017-05-13T12:06:19.316Z,58.61
2017-05-13T12:07:20.751Z,61.05
2017-05-13T12:08:22.200Z,58.03
2017-05-13T12:09:23.643Z,62.86
2017-05-13T12:10:25.089Z,59.38
2017-05-13T12:11:26.530Z,60.80
2017-05-13T12:12:27.963Z,58.10
2017-05-13T12:13:29.402Z,62.31
2017-05-13T12:14:30.846Z,61.28
2017-05-13T12:15:32.284Z,60.41
2017-05-13T12:16:33.729Z,59.90
2017-05-13T12:17:35.162Z,59.03
2017-05-13T12:18:36.602Z,62.51
2017-05-13T12:19:38.064Z,62.02
2017-05-13T12:20:39.492Z,58.33
2017-05-13T12:21:40.930Z,59.00
2017-05-13T12:22:42.369Z,60.83
2017-05-13T12:23:43.810Z,57.46
2017-05-13T12:24:45.248Z,59.13
2017-05-13T12:25:46.696Z,57.87
2017-05-13T12:26:48.131Z,59.45
2017-05-13T12:27:49.569Z,57.52
2017-05-13T12:28:51.014Z,57.87
2017-05-13T12:29:52.448Z,59.42
2017-05-13T12:30:53.892Z,62.51
2017-05-13T12:31:55.329Z,64.43
2017-05-13T12:32:56.765Z,63.47
2017-05-13T12:33:58.210Z,64.92
2017-05-13T12:34:59.654Z,63.47
2017-05-13T12:36:01.105Z,66.69
2017-05-13T12:37:02.539Z,60.96
2017-05-13T12:38:03.977Z,64.18
2017-05-13T12:39:05.414Z,59.00
2017-05-13T12:40:06.853Z,59.48
2017-05-13T12:41:08.295Z,58.80
2017-05-13T12:42:09.733Z,57.52
2017-05-13T12:43:11.176Z,58.70
2017-05-13T12:44:12.614Z,56.03
2017-05-13T12:45:14.065Z,56.32
2017-05-13T12:46:15.502Z,56.32
2017-05-13T12:47:16.947Z,56.90
2017-05-13T12:48:18.384Z,57.38
2017-05-13T12:49:19.821Z,60.47
2017-05-13T12:50:21.256Z,54.75
2017-05-13T12:51:22.692Z,59.86
2017-05-13T12:52:24.133Z,58.87
2017-05-13T12:53:25.578Z,58.94
2017-05-13T12:54:27.020Z,58.75
2017-05-13T12:55:28.469Z,58.84
2017-05-13T12:56:29.909Z,57.20
2017-05-13T12:57:31.346Z,59.61
2017-05-13T12:58:32.787Z,56.48
2017-05-13T12:59:34.225Z,60.47
2017-05-13T13:00:35.667Z,60.02
2017-05-13T13:01:37.103Z,56.13
2017-05-13T13:02:38.553Z,56.41
2017-05-13T13:03:40.648Z,56.20
2017-05-13T13:04:42.087Z,55.13
2017-05-13T13:05:43.530Z,54.55
2017-05-13T13:06:44.964Z,59.16
2017-05-13T13:07:46.407Z,58.58
2017-05-13T13:08:47.848Z,56.26
2017-05-13T13:09:49.287Z,56.14
2017-05-13T13:10:50.731Z,56.52